createdAt,value
2023-03-04T00:00:27.621Z,4.19
2023-03-04T00:01:27.739Z,4.14
2023-03-04T00:02:27.785Z,4.14
2023-03-04T00:03:27.893Z,4.19
2023-03-04T00:04:33.944Z,4.14
2023-03-04T00:05:28.052Z,4.19
2023-03-04T00:06:28.122Z,4.19
2023-03-04T00:07:28.244Z,4.19
2023-03-04T00:08:28.285Z,4.19
2023-03-04T00:09:28.375Z,4.24
2023-03-04T00:10:28.459Z,4.19
2023-03-04T00:11:28.525Z,4.14
2023-03-04T00:12:28.637Z,4.14
2023-03-04T00:13:28.666Z,4.19
2023-03-04T00:14:30.429Z,4.19
2023-03-04T00:15:28.849Z,4.19
2023-03-04T00:16:29.043Z,4.19
2023-03-04T00:17:29.016Z,4.19
2023-03-04T00:18:29.122Z,4.14
2023-03-04T00:19:29.190Z,4.24
2023-03-04T00:20:29.294Z,4.24
2023-03-04T00:21:29.350Z,4.19
2023-03-04T00:22:29.433Z,4.14
2023-03-04T00:23:29.517Z,4.14
2023-03-04T00:24:29.570Z,4.19
2023-03-04T00:25:29.656Z,4.19
2023-03-04T00:26:29.724Z,4.19
2023-03-04T00:27:29.804Z,4.14
2023-03-04T00:28:29.914Z,4.14
2023-03-04T00:29:30.029Z,4.14
2023-03-04T00:30:30.035Z,4.19
2023-03-04T00:31:30.154Z,4.14
2023-03-04T00:32:30.256Z,4.19
2023-03-04T00:33:30.259Z,4.19
2023-03-04T00:34:32.729Z,4.19
2023-03-04T00:35:36.502Z,4.14
2023-03-04T00:36:30.486Z,4.14
2023-03-04T00:37:30.588Z,4.14
2023-03-04T00:38:30.667Z,4.14
2023-03-04T00:39:30.764Z,4.14
2023-03-04T00:40:30.861Z,4.14
2023-03-04T00:41:30.972Z,4.19
2023-03-04T00:42:30.999Z,4.14
2023-03-04T00:43:31.075Z,4.14
2023-03-04T00:44:31.181Z,4.14
2023-03-04T00:45:31.263Z,4.19
2023-03-04T00:46:31.351Z,4.19
2023-03-04T00:47:31.464Z,4.19
2023-03-04T00:48:31.513Z,4.14
2023-03-04T00:49:31.581Z,4.24
2023-03-04T00:50:31.678Z,4.19
2023-03-04T00:51:31.773Z,4.19
2023-03-04T00:52:31.878Z,4.14
2023-03-04T00:53:31.939Z,4.19
2023-03-04T00:54:31.995Z,4.19
2023-03-04T00:55:32.089Z,4.14
2023-03-04T00:56:32.155Z,4.19
2023-03-04T00:57:32.248Z,4.14
2023-03-04T00:58:32.355Z,4.19
2023-03-04T00:59:32.404Z,4.19
2023-03-04T01:00:32.466Z,4.14
2023-03-04T01:01:32.622Z,4.19
2023-03-04T01:02:32.694Z,4.19
2023-03-04T01:03:32.757Z,4.14
2023-03-04T01:04:32.794Z,4.14
2023-03-04T01:05:32.879Z,4.19
2023-03-04T01:06:38.938Z,4.14
2023-03-04T01:07:34.078Z,4.19
2023-03-04T01:08:33.138Z,4.14
2023-03-04T01:09:33.245Z,4.14
2023-03-04T01:10:33.291Z,4.19
2023-03-04T01:11:33.361Z,4.14
2023-03-04T01:12:33.456Z,4.19
2023-03-04T01:13:33.537Z,4.14
2023-03-04T01:14:33.645Z,4.14
2023-03-04T01:15:33.692Z,4.19
2023-03-04T01:16:33.829Z,4.19
2023-03-04T01:17:33.898Z,4.14
2023-03-04T01:18:33.940Z,4.14
2023-03-04T01:19:34.056Z,4.14
2023-03-04T01:20:34.128Z,4.19
2023-03-04T01:21:34.188Z,4.14
2023-03-04T01:22:34.276Z,4.14
2023-03-04T01:23:34.374Z,4.19
2023-03-04T01:24:34.444Z,4.14
2023-03-04T01:25:34.529Z,4.14
2023-03-04T01:26:34.607Z,4.19
2023-03-04T01:27:34.719Z,4.14
2023-03-04T01:28:34.795Z,4.19
2023-03-04T01:29:34.862Z,4.24
2023-03-04T01:30:34.963Z,4.14
2023-03-04T01:31:35.052Z,4.14
2023-03-04T01:32:35.207Z,4.14
2023-03-04T01:33:35.170Z,4.14
2023-03-04T01:34:35.244Z,4.14
2023-03-04T01:35:35.351Z,4.19
2023-03-04T01:36:35.398Z,4.19
2023-03-04T01:37:41.544Z,4.19
2023-03-04T01:38:35.577Z,4.19
2023-03-04T01:39:35.689Z,4.14
2023-03-04T01:40:35.740Z,4.19
2023-03-04T01:41:35.824Z,4.14
2023-03-04T01:42:35.922Z,4.14
2023-03-04T01:43:36.037Z,4.19
2023-03-04T01:44:36.110Z,4.14
2023-03-04T01:45:37.541Z,4.24
2023-03-04T01:46:36.297Z,4.19
2023-03-04T01:47:36.366Z,4.08
2023-03-04T01:48:36.446Z,4.19
2023-03-04T01:49:36.533Z,4.24
2023-03-04T01:50:36.620Z,4.14
2023-03-04T01:51:36.686Z,4.19
2023-03-04T01:52:36.760Z,4.24
2023-03-04T01:53:36.873Z,4.19
2023-03-04T01:54:36.962Z,4.14
2023-03-04T01:55:37.052Z,4.14
2023-03-04T01:56:37.130Z,4.14
2023-03-04T01:57:37.205Z,4.14
2023-03-04T01:58:37.277Z,4.19
2023-03-04T01:59:37.358Z,4.19
2023-03-04T02:00:37.460Z,4.19
2023-03-04T02:01:37.660Z,4.14
2023-03-04T02:02:37.613Z,4.14
2023-03-04T02:03:37.706Z,4.19
2023-03-04T02:04:37.888Z,4.19
2023-03-04T02:05:37.878Z,4.19
2023-03-04T02:06:37.987Z,4.19
2023-03-04T02:07:38.082Z,4.19
2023-03-04T02:08:44.115Z,4.19
2023-03-04T02:09:38.212Z,4.19
2023-03-04T02:10:38.291Z,4.19
2023-03-04T02:11:38.379Z,4.08
2023-03-04T02:12:38.459Z,4.08
2023-03-04T02:13:38.556Z,4.14
2023-03-04T02:14:38.611Z,4.19
2023-03-04T02:15:38.876Z,4.14
2023-03-04T02:16:38.801Z,4.19
2023-03-04T02:17:38.877Z,4.19
2023-03-04T02:18:38.983Z,4.19
2023-03-04T02:19:39.092Z,4.14
2023-03-04T02:20:39.141Z,4.14
2023-03-04T02:21:39.240Z,4.14
2023-03-04T02:22:39.322Z,4.24
2023-03-04T02:23:39.398Z,4.14
2023-03-04T02:24:39.510Z,4.08
2023-03-04T02:25:39.553Z,4.19
2023-03-04T02:26:39.639Z,4.19
2023-03-04T02:27:39.715Z,4.19
2023-03-04T02:28:39.802Z,4.14
2023-03-04T02:29:39.900Z,4.19
2023-03-04T02:30:40.918Z,4.19
2023-03-04T02:31:40.074Z,4.19
2023-03-04T02:32:40.145Z,4.19
2023-03-04T02:33:40.251Z,4.19
2023-03-04T02:34:40.340Z,4.19
2023-03-04T02:35:40.487Z,4.14
2023-03-04T02:36:40.540Z,4.19
2023-03-04T02:37:40.602Z,4.14
2023-03-04T02:38:40.693Z,4.19
2023-03-04T02:39:46.754Z,4.14
2023-03-04T02:40:40.875Z,4.19
2023-03-04T02:41:40.959Z,4.14
2023-03-04T02:42:41.066Z,4.14
2023-03-04T02:43:41.136Z,4.14
2023-03-04T02:44:41.243Z,4.19
2023-03-04T02:45:41.323Z,4.19
2023-03-04T02:46:41.465Z,4.19
2023-03-04T02:47:41.514Z,4.19
2023-03-04T02:48:41.560Z,4.35
2023-03-04T02:49:41.623Z,4.14
2023-03-04T02:50:41.720Z,4.19
2023-03-04T02:51:41.806Z,4.14
2023-03-04T02:52:41.920Z,4.19
2023-03-04T02:53:41.981Z,4.19
2023-03-04T02:54:42.060Z,4.19
2023-03-04T02:55:42.141Z,4.19
2023-03-04T02:56:42.216Z,4.14
2023-03-04T02:57:42.298Z,4.14
2023-03-04T02:58:42.364Z,4.19
2023-03-04T02:59:42.461Z,4.19
2023-03-04T03:00:42.510Z,4.14
2023-03-04T03:01:42.641Z,4.19
2023-03-04T03:02:42.724Z,4.19
2023-03-04T03:03:42.779Z,4.14
2023-03-04T03:04:42.853Z,4.19
2023-03-04T03:05:42.949Z,4.19
2023-03-04T03:06:43.017Z,4.19
2023-03-04T03:07:43.091Z,4.19
2023-03-04T03:08:43.182Z,4.14
2023-03-04T03:09:43.269Z,4.19
2023-03-04T03:10:49.598Z,4.19
2023-03-04T03:11:43.439Z,4.14
2023-03-04T03:12:43.499Z,4.19
2023-03-04T03:13:43.572Z,4.19
2023-03-04T03:14:43.672Z,4.19
2023-03-04T03:15:43.761Z,4.14
2023-03-04T03:16:43.889Z,4.14
2023-03-04T03:17:43.933Z,4.19
2023-03-04T03:18:44.015Z,4.14
2023-03-04T03:19:44.147Z,4.19
2023-03-04T03:20:44.225Z,4.19
2023-03-04T03:21:44.283Z,4.14
2023-03-04T03:22:44.421Z,4.14
2023-03-04T03:23:44.467Z,4.19
2023-03-04T03:24:44.541Z,4.19
2023-03-04T03:25:44.631Z,4.19
2023-03-04T03:26:44.708Z,4.19
2023-03-04T03:27:44.800Z,4.14
2023-03-04T03:28:44.855Z,4.19
2023-03-04T03:29:44.953Z,4.19
2023-03-04T03:30:45.025Z,4.24
2023-03-04T03:31:45.145Z,4.19
2023-03-04T03:32:45.235Z,4.14
2023-03-04T03:33:45.293Z,4.14
2023-03-04T03:34:45.387Z,4.14
2023-03-04T03:35:45.555Z,4.19
2023-03-04T03:36:45.540Z,4.14
2023-03-04T03:37:45.619Z,4.14
2023-03-04T03:38:45.727Z,4.19
2023-03-04T03:39:45.786Z,4.24
2023-03-04T03:40:45.851Z,4.14
2023-03-04T03:41:51.903Z,4.19
2023-03-04T03:42:46.035Z,4.14
2023-03-04T03:43:46.119Z,4.19
2023-03-04T03:44:46.228Z,4.14
2023-03-04T03:45:46.315Z,4.19
2023-03-04T03:46:46.377Z,4.19
2023-03-04T03:47:46.458Z,4.19
2023-03-04T03:48:46.560Z,4.19
2023-03-04T03:49:46.671Z,4.19
2023-03-04T03:50:46.765Z,4.14
2023-03-04T03:51:46.824Z,4.19
2023-03-04T03:52:46.908Z,4.14
2023-03-04T03:53:47.021Z,4.19
2023-03-04T03:54:47.077Z,4.19
2023-03-04T03:55:47.161Z,4.14
2023-03-04T03:56:47.234Z,4.14
2023-03-04T03:57:47.329Z,4.03
2023-03-04T03:58:47.398Z,4.14
2023-03-04T03:59:47.477Z,4.14
2023-03-04T04:00:47.569Z,4.19
2023-03-04T04:01:47.630Z,4.14
2023-03-04T04:02:47.905Z,4.19
2023-03-04T04:03:47.792Z,4.19
2023-03-04T04:04:47.880Z,4.24
2023-03-04T04:05:47.975Z,4.19
2023-03-04T04:06:48.077Z,4.08
2023-03-04T04:07:48.171Z,4.24
2023-03-04T04:08:48.248Z,4.14
2023-03-04T04:09:48.350Z,4.19
2023-03-04T04:10:48.433Z,4.14
2023-03-04T04:11:48.535Z,4.03
2023-03-04T04:12:54.590Z,4.14
2023-03-04T04:13:48.687Z,4.24
2023-03-04T04:14:48.802Z,4.19
2023-03-04T04:15:48.864Z,4.19
2023-03-04T04:16:49.029Z,4.14
2023-03-04T04:17:49.055Z,4.14
2023-03-04T04:18:49.122Z,4.19
2023-03-04T04:19:49.230Z,4.14
2023-03-04T04:20:49.284Z,4.24
2023-03-04T04:21:49.358Z,4.14
2023-03-04T04:22:49.459Z,4.19
2023-03-04T04:23:49.567Z,4.14
2023-03-04T04:24:49.615Z,4.14
2023-03-04T04:25:49.689Z,4.19
2023-03-04T04:26:49.796Z,4.03
2023-03-04T04:27:49.876Z,4.19
2023-03-04T04:28:49.950Z,4.24
2023-03-04T04:29:50.058Z,4.24
2023-03-04T04:30:50.157Z,4.19
2023-03-04T04:31:50.176Z,4.24
2023-03-04T04:32:50.286Z,4.19
2023-03-04T04:33:50.361Z,4.19
2023-03-04T04:34:50.460Z,4.19
2023-03-04T04:35:50.652Z,4.19
2023-03-04T04:36:50.631Z,4.14
2023-03-04T04:37:50.724Z,3.97
2023-03-04T04:38:50.796Z,4.14
2023-03-04T04:39:50.884Z,4.19
2023-03-04T04:40:50.948Z,4.14
2023-03-04T04:41:51.074Z,4.19
2023-03-04T04:42:51.131Z,4.19
2023-03-04T04:43:57.199Z,4.14
2023-03-04T04:44:51.289Z,4.19
2023-03-04T04:45:51.467Z,4.14
2023-03-04T04:46:51.504Z,4.19
2023-03-04T04:47:51.559Z,4.19
2023-03-04T04:48:51.652Z,4.19
2023-03-04T04:49:51.733Z,3.92
2023-03-04T04:50:51.816Z,4.19
2023-03-04T04:51:51.936Z,3.97
2023-03-04T04:52:51.997Z,4.19
2023-03-04T04:53:52.076Z,4.19
2023-03-04T04:54:52.170Z,4.19
2023-03-04T04:55:52.272Z,4.19
2023-03-04T04:56:52.325Z,4.19
2023-03-04T04:57:52.404Z,4.24
2023-03-04T04:58:52.513Z,4.08
2023-03-04T04:59:52.549Z,4.19
2023-03-04T05:00:52.637Z,4.14
2023-03-04T05:01:52.734Z,4.19
2023-03-04T05:02:52.847Z,3.97
2023-03-04T05:03:52.912Z,3.97
2023-03-04T05:04:52.988Z,4.14
2023-03-04T05:05:53.051Z,3.97
2023-03-04T05:07:51.839Z,4.19
2023-03-04T05:08:52.930Z,4.19
2023-03-04T05:09:53.025Z,4.19
2023-03-04T05:10:53.134Z,4.14
2023-03-04T05:11:53.195Z,4.19
2023-03-04T05:12:53.259Z,4.14
2023-03-04T05:13:53.389Z,4.19
2023-03-04T05:14:53.432Z,4.19
2023-03-04T05:15:53.607Z,3.97
2023-03-04T05:16:53.592Z,4.19
2023-03-04T05:17:53.684Z,4.14
2023-03-04T05:18:53.812Z,3.97
2023-03-04T05:19:53.903Z,4.14
2023-03-04T05:20:53.952Z,4.19
2023-03-04T05:21:54.055Z,4.24
2023-03-04T05:22:54.139Z,3.97
2023-03-04T05:23:54.223Z,4.14
2023-03-04T05:24:54.290Z,4.14
2023-03-04T05:25:54.369Z,4.08
2023-03-04T05:26:54.448Z,4.19
2023-03-04T05:27:54.630Z,4.14
2023-03-04T05:28:54.599Z,4.19
2023-03-04T05:29:54.666Z,4.19
2023-03-04T05:30:54.762Z,3.92
2023-03-04T05:31:54.904Z,3.97
2023-03-04T05:32:54.932Z,3.97
2023-03-04T05:33:55.037Z,4.19
2023-03-04T05:34:55.112Z,3.97
2023-03-04T05:35:55.311Z,3.97
2023-03-04T05:36:55.265Z,3.97
2023-03-04T05:38:01.318Z,4.19
2023-03-04T05:38:55.416Z,4.14
2023-03-04T05:39:55.522Z,4.24
2023-03-04T05:40:55.557Z,3.97
2023-03-04T05:41:55.631Z,4.19
2023-03-04T05:42:55.714Z,4.14
2023-03-04T05:43:55.792Z,3.97
2023-03-04T05:44:55.891Z,3.97
2023-03-04T05:45:55.970Z,3.92
2023-03-04T05:46:56.032Z,3.92
2023-03-04T05:47:56.117Z,3.97
2023-03-04T05:48:56.190Z,4.14
2023-03-04T05:49:56.253Z,3.97
2023-03-04T05:50:56.336Z,4.14
2023-03-04T05:51:56.464Z,3.97
2023-03-04T05:52:56.507Z,4.03
2023-03-04T05:53:56.576Z,4.24
2023-03-04T05:54:56.658Z,4.19
2023-03-04T05:55:56.742Z,3.97
2023-03-04T05:56:56.850Z,4.19
2023-03-04T05:57:56.894Z,3.97
2023-03-04T05:58:56.998Z,4.19
2023-03-04T05:59:57.064Z,3.97
2023-03-04T06:00:57.158Z,3.97
2023-03-04T06:01:57.256Z,4.19
2023-03-04T06:02:57.412Z,4.19
2023-03-04T06:03:57.463Z,4.24
2023-03-04T06:04:57.517Z,4.30
2023-03-04T06:05:57.572Z,4.14
2023-03-04T06:06:57.651Z,4.14
2023-03-04T06:07:57.761Z,3.97
2023-03-04T06:09:03.809Z,4.03
2023-03-04T06:09:57.902Z,4.19
2023-03-04T06:10:58.016Z,3.97
2023-03-04T06:11:58.104Z,4.14
2023-03-04T06:12:58.168Z,3.97
2023-03-04T06:13:58.286Z,3.97
2023-03-04T06:14:58.318Z,3.97
2023-03-04T06:15:58.422Z,3.97
2023-03-04T06:16:58.464Z,3.92
2023-03-04T06:17:58.544Z,4.19
2023-03-04T06:18:58.634Z,4.14
2023-03-04T06:19:58.676Z,3.97
2023-03-04T06:20:58.745Z,4.14
2023-03-04T06:21:58.830Z,3.97
2023-03-04T06:22:58.924Z,4.19
2023-03-04T06:23:59.015Z,3.97
2023-03-04T06:24:59.103Z,4.14
2023-03-04T06:25:59.172Z,4.19
2023-03-04T06:26:59.262Z,4.03
2023-03-04T06:27:59.331Z,4.14
2023-03-04T06:28:59.435Z,3.97
2023-03-04T06:29:59.516Z,3.97
2023-03-04T06:30:59.571Z,3.97
2023-03-04T06:31:59.640Z,3.97
2023-03-04T06:32:59.699Z,3.97
2023-03-04T06:33:59.766Z,4.03
2023-03-04T06:34:59.905Z,3.97
2023-03-04T06:35:59.936Z,3.97
2023-03-04T06:36:59.984Z,3.97
2023-03-04T06:38:00.050Z,3.97
2023-03-04T06:39:00.129Z,4.19
2023-03-04T06:40:06.165Z,3.97
2023-03-04T06:41:00.269Z,3.97
2023-03-04T06:42:00.373Z,3.97
2023-03-04T06:43:00.414Z,3.92
2023-03-04T06:44:00.493Z,4.19
2023-03-04T06:45:00.568Z,3.97
2023-03-04T06:46:00.647Z,4.19
2023-03-04T06:47:00.906Z,3.97
2023-03-04T06:48:00.811Z,3.97
2023-03-04T06:49:00.898Z,4.03
2023-03-04T06:50:01.033Z,4.03
2023-03-04T06:51:01.079Z,4.14
2023-03-04T06:52:01.162Z,4.03
2023-03-04T06:53:01.254Z,3.97
2023-03-04T06:54:01.316Z,3.97
2023-03-04T06:55:01.406Z,4.24
2023-03-04T06:56:01.491Z,3.97
2023-03-04T06:57:01.571Z,4.19
2023-03-04T06:58:01.652Z,3.92
2023-03-04T06:59:01.690Z,4.14
2023-03-04T07:00:01.771Z,3.97
2023-03-04T07:01:01.901Z,3.97
2023-03-04T07:02:01.947Z,3.92
2023-03-04T07:03:02.056Z,3.71
2023-03-04T07:04:02.189Z,3.97
2023-03-04T07:05:02.211Z,4.03
2023-03-04T07:06:02.314Z,3.97
2023-03-04T07:07:02.405Z,3.97
2023-03-04T07:08:02.495Z,3.97
2023-03-04T07:09:02.622Z,3.97
2023-03-04T07:10:02.683Z,4.03
2023-03-04T07:11:08.742Z,3.97
2023-03-04T07:12:02.834Z,3.97
2023-03-04T07:13:02.903Z,3.97
2023-03-04T07:14:02.974Z,3.97
2023-03-04T07:15:03.069Z,3.97
2023-03-04T07:16:03.170Z,4.08
2023-03-04T07:17:03.222Z,3.92
2023-03-04T07:18:03.279Z,3.97
2023-03-04T07:19:03.354Z,3.97
2023-03-04T07:20:03.442Z,3.97
2023-03-04T07:21:03.572Z,3.97
2023-03-04T07:22:03.592Z,3.97
2023-03-04T07:23:03.659Z,3.97
2023-03-04T07:24:03.738Z,3.97
2023-03-04T07:25:03.798Z,3.92
2023-03-04T07:26:03.869Z,3.92
2023-03-04T07:27:03.951Z,3.92
2023-03-04T07:28:04.025Z,3.97
2023-03-04T07:29:04.081Z,3.97
2023-03-04T07:30:04.177Z,3.97
2023-03-04T07:31:04.276Z,3.97
2023-03-04T07:32:04.512Z,3.97
2023-03-04T07:33:04.440Z,3.97
2023-03-04T07:34:04.497Z,3.97
2023-03-04T07:35:04.576Z,4.03
2023-03-04T07:36:04.648Z,3.97
2023-03-04T07:37:04.729Z,3.97
2023-03-04T07:38:04.819Z,3.92
2023-03-04T07:39:04.880Z,3.97
2023-03-04T07:40:04.999Z,3.97
2023-03-04T07:41:05.047Z,4.03
2023-03-04T07:42:11.080Z,3.97
2023-03-04T07:43:05.191Z,3.97
2023-03-04T07:44:05.277Z,3.97
2023-03-04T07:45:05.350Z,4.03
2023-03-04T07:46:05.464Z,3.92
2023-03-04T07:47:05.502Z,3.97
2023-03-04T07:48:05.587Z,3.97
2023-03-04T07:49:05.720Z,3.97
2023-03-04T07:50:05.784Z,3.97
2023-03-04T07:51:05.868Z,4.03
2023-03-04T07:52:05.966Z,3.97
2023-03-04T07:53:06.051Z,3.97
2023-03-04T07:54:06.126Z,3.97
2023-03-04T07:55:06.215Z,3.97
2023-03-04T07:56:06.252Z,3.97
2023-03-04T07:57:06.360Z,3.97
2023-03-04T07:58:06.448Z,3.60
2023-03-04T07:59:06.614Z,3.92
2023-03-04T08:00:06.641Z,3.92
2023-03-04T08:01:06.708Z,3.97
2023-03-04T08:02:06.899Z,3.97
2023-03-04T08:03:06.895Z,3.92
2023-03-04T08:04:07.049Z,3.97
2023-03-04T08:05:07.030Z,4.03
2023-03-04T08:06:07.136Z,3.97
2023-03-04T08:07:07.209Z,3.97
2023-03-04T08:08:07.268Z,3.97
2023-03-04T08:09:07.344Z,3.97
2023-03-04T08:10:07.434Z,4.08
2023-03-04T08:11:07.525Z,3.97
2023-03-04T08:12:07.595Z,3.97
2023-03-04T08:13:13.664Z,3.97
2023-03-04T08:14:07.762Z,3.97
2023-03-04T08:15:07.849Z,3.92
2023-03-04T08:16:08.057Z,3.97
2023-03-04T08:17:08.012Z,4.08
2023-03-04T08:18:08.074Z,3.97
2023-03-04T08:19:08.143Z,3.97
2023-03-04T08:20:08.204Z,4.03
2023-03-04T08:21:08.302Z,3.97
2023-03-04T08:22:08.365Z,4.03
2023-03-04T08:23:08.488Z,3.97
2023-03-04T08:24:09.155Z,3.97
2023-03-04T08:25:08.584Z,3.97
2023-03-04T08:26:08.659Z,4.08
2023-03-04T08:27:08.750Z,3.92
2023-03-04T08:28:08.820Z,3.97
2023-03-04T08:29:08.935Z,3.97
2023-03-04T08:30:09.026Z,3.97
2023-03-04T08:31:09.226Z,3.97
2023-03-04T08:32:09.360Z,3.97
2023-03-04T08:33:09.276Z,3.97
2023-03-04T08:34:09.360Z,3.92
2023-03-04T08:35:09.429Z,3.97
2023-03-04T08:36:09.480Z,3.97
2023-03-04T08:37:09.557Z,3.97
2023-03-04T08:38:09.639Z,3.92
2023-03-04T08:39:09.711Z,3.97
2023-03-04T08:40:09.818Z,3.97
2023-03-04T08:41:09.881Z,3.97
2023-03-04T08:42:09.944Z,4.03
2023-03-04T08:43:10.027Z,3.97
2023-03-04T08:44:16.081Z,3.97
2023-03-04T08:45:10.214Z,3.97
2023-03-04T08:46:10.321Z,3.97
2023-03-04T08:47:10.348Z,3.97
2023-03-04T08:48:10.408Z,4.03
2023-03-04T08:49:10.487Z,3.97
2023-03-04T08:50:10.563Z,3.97
2023-03-04T08:51:10.669Z,3.97
2023-03-04T08:52:10.710Z,3.92
2023-03-04T08:53:10.806Z,3.97
2023-03-04T08:54:10.912Z,3.92
2023-03-04T08:55:10.998Z,3.97
2023-03-04T08:56:11.079Z,4.03
2023-03-04T08:57:11.148Z,3.97
2023-03-04T08:58:11.250Z,3.92
2023-03-04T08:59:11.342Z,3.97
2023-03-04T09:00:11.426Z,3.97
2023-03-04T09:01:11.476Z,3.97
2023-03-04T09:02:11.565Z,3.97
2023-03-04T09:03:11.628Z,3.97
2023-03-04T09:04:11.684Z,3.97
2023-03-04T09:05:11.750Z,3.97
2023-03-04T09:06:11.840Z,4.03
2023-03-04T09:07:11.913Z,3.97
2023-03-04T09:08:12.013Z,4.03
2023-03-04T09:09:12.057Z,3.92
2023-03-04T09:10:12.140Z,3.81
2023-03-04T09:11:12.199Z,3.97
2023-03-04T09:12:12.280Z,3.97
2023-03-04T09:13:12.412Z,3.92
2023-03-04T09:14:12.483Z,4.03
2023-03-04T09:15:18.531Z,3.92
2023-03-04T09:16:12.756Z,3.97
2023-03-04T09:17:12.722Z,3.97
2023-03-04T09:18:12.803Z,3.97
2023-03-04T09:19:12.875Z,3.97
2023-03-04T09:20:12.983Z,4.03
2023-03-04T09:21:13.036Z,3.97
2023-03-04T09:22:13.112Z,3.97
2023-03-04T09:23:13.206Z,3.97
2023-03-04T09:24:13.269Z,3.97
2023-03-04T09:25:13.362Z,3.97
2023-03-04T09:26:13.465Z,3.97
2023-03-04T09:27:13.549Z,3.97
2023-03-04T09:28:13.639Z,3.97
2023-03-04T09:29:13.703Z,3.97
2023-03-04T09:30:13.794Z,3.97
2023-03-04T09:31:14.608Z,3.97
2023-03-04T09:32:14.005Z,3.97
2023-03-04T09:33:14.070Z,3.97
2023-03-04T09:34:14.134Z,3.97
2023-03-04T09:35:14.207Z,3.97
2023-03-04T09:36:14.316Z,4.03
2023-03-04T09:37:14.400Z,3.92
2023-03-04T09:38:14.497Z,3.97
2023-03-04T09:39:14.598Z,3.97
2023-03-04T09:40:14.678Z,3.92
2023-03-04T09:41:14.771Z,3.97
2023-03-04T09:42:14.868Z,3.97
2023-03-04T09:43:14.975Z,3.97
2023-03-04T09:44:15.067Z,4.03
2023-03-04T09:45:15.113Z,3.92
2023-03-04T09:46:21.750Z,3.97
2023-03-04T09:47:15.291Z,3.97
2023-03-04T09:48:15.362Z,4.03
2023-03-04T09:49:15.490Z,3.97
2023-03-04T09:50:15.559Z,3.97
2023-03-04T09:51:15.649Z,3.97
2023-03-04T09:52:15.718Z,3.97
2023-03-04T09:53:15.822Z,3.97
2023-03-04T09:54:15.912Z,4.03
2023-03-04T09:55:16.000Z,3.97
2023-03-04T09:56:16.029Z,3.92
2023-03-04T09:57:16.103Z,3.97
2023-03-04T09:58:16.189Z,4.08
2023-03-04T09:59:16.253Z,3.97
2023-03-04T10:00:16.415Z,3.97
2023-03-04T10:01:16.448Z,3.97
2023-03-04T10:02:16.518Z,3.92
2023-03-04T10:03:16.668Z,3.97
2023-03-04T10:04:16.684Z,3.97
2023-03-04T10:05:16.761Z,3.97
2023-03-04T10:06:16.892Z,4.03
2023-03-04T10:07:16.944Z,3.97
2023-03-04T10:08:17.037Z,3.97
2023-03-04T10:09:17.132Z,4.03
2023-03-04T10:10:17.264Z,3.97
2023-03-04T10:11:17.337Z,3.97
2023-03-04T10:12:17.413Z,4.03
2023-03-04T10:13:17.498Z,3.97
2023-03-04T10:14:17.609Z,4.03
2023-03-04T10:15:17.704Z,3.97
2023-03-04T10:16:17.790Z,3.92
2023-03-04T10:17:24.146Z,3.92
2023-03-04T10:18:20.430Z,3.97
2023-03-04T10:19:18.026Z,3.97
2023-03-04T10:20:18.092Z,3.97
2023-03-04T10:21:18.186Z,3.97
2023-03-04T10:22:18.274Z,3.97
2023-03-04T10:23:18.392Z,3.97
2023-03-04T10:24:18.462Z,4.03
2023-03-04T10:25:18.524Z,3.92
2023-03-04T10:26:18.614Z,4.03
2023-03-04T10:27:18.698Z,4.14
2023-03-04T10:28:18.788Z,3.92
2023-03-04T10:29:18.827Z,3.97
2023-03-04T10:30:18.913Z,4.03
2023-03-04T10:31:19.011Z,3.97
2023-03-04T10:32:19.062Z,3.97
2023-03-04T10:33:19.132Z,4.03
2023-03-04T10:34:19.221Z,3.92
2023-03-04T10:35:20.498Z,3.97
2023-03-04T10:36:19.351Z,3.97
2023-03-04T10:37:19.419Z,3.97
2023-03-04T10:38:19.519Z,3.97
2023-03-04T10:39:19.648Z,3.97
2023-03-04T10:40:19.682Z,4.03
2023-03-04T10:41:19.757Z,3.97
2023-03-04T10:42:19.837Z,3.97
2023-03-04T10:43:19.925Z,3.97
2023-03-04T10:44:20.005Z,3.97
2023-03-04T10:45:20.123Z,3.97
2023-03-04T10:46:20.164Z,3.92
2023-03-04T10:47:20.238Z,3.97
2023-03-04T10:48:26.300Z,3.97
2023-03-04T10:49:20.398Z,3.97
2023-03-04T10:50:20.521Z,3.97
2023-03-04T10:51:20.593Z,3.97
2023-03-04T10:52:20.649Z,3.97
2023-03-04T10:53:20.736Z,4.14
2023-03-04T10:54:20.801Z,3.97
2023-03-04T10:55:20.889Z,3.97
2023-03-04T10:56:21.002Z,4.03
2023-03-04T10:57:21.082Z,3.97
2023-03-04T10:58:21.136Z,3.97
2023-03-04T10:59:21.222Z,3.97
2023-03-04T11:00:21.320Z,4.03
2023-03-04T11:01:21.402Z,3.97
2023-03-04T11:02:21.482Z,4.03
2023-03-04T11:03:21.580Z,3.97
2023-03-04T11:04:21.633Z,3.97
2023-03-04T11:05:21.711Z,4.03
2023-03-04T11:06:21.807Z,3.97
2023-03-04T11:07:21.898Z,3.92
2023-03-04T11:08:21.982Z,3.97
2023-03-04T11:09:22.021Z,4.03
2023-03-04T11:10:22.122Z,3.97
2023-03-04T11:11:22.199Z,3.97
2023-03-04T11:12:22.267Z,3.97
2023-03-04T11:13:22.354Z,3.97
2023-03-04T11:14:22.432Z,3.97
2023-03-04T11:15:22.524Z,3.97
2023-03-04T11:16:22.666Z,3.97
2023-03-04T11:17:22.704Z,3.97
2023-03-04T11:18:22.777Z,3.92
2023-03-04T11:19:29.171Z,3.92
2023-03-04T11:20:22.944Z,4.03
2023-03-04T11:21:23.013Z,4.08
2023-03-04T11:22:23.086Z,4.03
2023-03-04T11:23:23.164Z,3.97
2023-03-04T11:24:28.848Z,3.97
2023-03-04T11:25:23.341Z,3.97
2023-03-04T11:26:23.386Z,3.97
2023-03-04T11:27:23.448Z,3.97
2023-03-04T11:28:23.524Z,3.97
2023-03-04T11:29:23.596Z,10.63
2023-03-04T11:30:23.719Z,10.63
2023-03-04T11:31:23.808Z,11.17
2023-03-04T11:32:23.915Z,11.17
2023-03-04T11:33:23.983Z,11.44
2023-03-04T11:34:24.031Z,11.82
2023-03-04T11:35:24.143Z,11.76
2023-03-04T11:36:24.209Z,11.98
2023-03-04T11:37:24.272Z,11.92
2023-03-04T11:38:24.358Z,11.98
2023-03-04T11:39:24.457Z,11.98
2023-03-04T11:40:24.535Z,11.92
2023-03-04T11:41:24.652Z,11.92
2023-03-04T11:42:24.742Z,11.92
2023-03-04T11:43:24.810Z,12.19
2023-03-04T11:44:24.905Z,12.19
2023-03-04T11:45:30.472Z,12.19
2023-03-04T11:46:25.131Z,12.57
2023-03-04T11:47:25.168Z,12.14
2023-03-04T11:48:25.244Z,12.57
2023-03-04T11:49:25.341Z,12.57
2023-03-04T11:50:31.391Z,12.62
2023-03-04T11:51:25.511Z,12.57
2023-03-04T11:52:25.623Z,12.68
2023-03-04T11:53:25.704Z,12.57
2023-03-04T11:54:25.789Z,12.57
2023-03-04T11:55:25.865Z,12.62
2023-03-04T11:56:25.954Z,12.62
2023-03-04T11:57:26.048Z,12.51
2023-03-04T11:58:26.142Z,12.51
2023-03-04T11:59:26.218Z,12.73
2023-03-04T12:00:26.318Z,12.73
2023-03-04T12:01:26.400Z,12.57
2023-03-04T12:02:26.479Z,12.73
2023-03-04T12:03:26.766Z,12.73
2023-03-04T12:04:26.782Z,12.73
2023-03-04T12:05:26.699Z,12.73
2023-03-04T12:06:26.779Z,12.68
2023-03-04T12:07:26.870Z,12.73
2023-03-04T12:08:26.963Z,12.73
2023-03-04T12:09:27.081Z,12.73
2023-03-04T12:10:27.151Z,12.73
2023-03-04T12:11:27.233Z,12.73
2023-03-04T12:12:27.332Z,12.73
2023-03-04T12:13:27.423Z,12.73
2023-03-04T12:14:27.528Z,12.68
2023-03-04T12:15:27.592Z,12.78
2023-03-04T12:16:27.685Z,12.73
2023-03-04T12:17:27.745Z,13.11
2023-03-04T12:18:27.848Z,12.78
2023-03-04T12:19:27.932Z,12.73
2023-03-04T12:20:28.016Z,13.11
2023-03-04T12:21:34.054Z,12.73
2023-03-04T12:22:28.174Z,12.68
2023-03-04T12:23:28.257Z,13.11
2023-03-04T12:24:28.341Z,12.73
2023-03-04T12:25:28.438Z,12.73
2023-03-04T12:26:28.556Z,12.73
2023-03-04T12:27:28.628Z,13.11
2023-03-04T12:28:28.717Z,13.11
2023-03-04T12:29:28.807Z,13.16
2023-03-04T12:30:28.889Z,12.68
2023-03-04T12:31:29.009Z,12.73
2023-03-04T12:32:29.075Z,12.73
2023-03-04T12:33:29.132Z,13.11
2023-03-04T12:34:29.190Z,13.11
2023-03-04T12:35:29.279Z,13.27
2023-03-04T12:36:29.374Z,13.11
2023-03-04T12:37:29.458Z,13.11
2023-03-04T12:38:29.517Z,13.11
2023-03-04T12:39:29.602Z,13.16
2023-03-04T12:40:29.680Z,12.73
2023-03-04T12:41:29.784Z,13.16
2023-03-04T12:42:29.862Z,13.16
2023-03-04T12:43:29.941Z,13.16
2023-03-04T12:44:30.027Z,13.11
2023-03-04T12:45:30.094Z,13.21
2023-03-04T12:46:30.222Z,13.11
2023-03-04T12:47:30.272Z,13.11
2023-03-04T12:48:30.350Z,13.11
2023-03-04T12:49:30.403Z,13.11
2023-03-04T12:50:30.508Z,13.11
2023-03-04T12:51:30.588Z,13.16
2023-03-04T12:52:36.649Z,13.11
2023-03-04T12:53:30.769Z,13.11
2023-03-04T12:54:30.866Z,13.11
2023-03-04T12:55:30.950Z,13.16
2023-03-04T12:56:31.029Z,13.16
2023-03-04T12:57:31.092Z,13.21
2023-03-04T12:58:31.175Z,13.11
2023-03-04T12:59:31.257Z,13.16
2023-03-04T13:00:31.334Z,13.16
2023-03-04T13:01:31.432Z,13.21
2023-03-04T13:02:31.636Z,13.16
2023-03-04T13:03:31.809Z,13.11
2023-03-04T13:04:31.705Z,13.11
2023-03-04T13:05:31.803Z,13.11
2023-03-04T13:06:31.870Z,13.11
2023-03-04T13:07:31.969Z,13.16
2023-03-04T13:08:32.075Z,13.11
2023-03-04T13:09:32.153Z,13.16
2023-03-04T13:10:32.254Z,13.11
2023-03-04T13:11:32.307Z,13.16
2023-03-04T13:12:32.365Z,13.11
2023-03-04T13:13:32.451Z,13.16
2023-03-04T13:14:32.563Z,13.11
2023-03-04T13:15:32.641Z,13.11
2023-03-04T13:16:32.818Z,13.21